createdAt,value
2022-09-21T00:00:48.364Z,7.8
2022-09-21T00:02:04.607Z,7.8
2022-09-21T00:03:20.856Z,7.8
2022-09-21T00:04:37.085Z,7.8
2022-09-21T00:05:53.335Z,7.8
2022-09-21T00:07:09.560Z,7.7
2022-09-21T00:08:25.805Z,7.7
2022-09-21T00:09:41.074Z,7.7
2022-09-21T00:10:57.302Z,7.7
2022-09-21T00:12:13.536Z,7.7
2022-09-21T00:13:29.788Z,7.6
2022-09-21T00:14:46.023Z,7.6
2022-09-21T00:16:02.275Z,7.6
2022-09-21T00:17:18.501Z,7.6
2022-09-21T00:18:34.741Z,7.5
2022-09-21T00:19:50.983Z,7.5
2022-09-21T00:21:07.219Z,7.5
2022-09-21T00:22:23.456Z,7.4
2022-09-21T00:23:39.697Z,7.4
2022-09-21T00:24:55.936Z,7.4
2022-09-21T00:26:11.189Z,7.4
2022-09-21T00:27:27.437Z,7.3
2022-09-21T00:28:43.678Z,7.4
2022-09-21T00:29:59.919Z,7.4
2022-09-21T00:31:16.160Z,7.4
2022-09-21T00:32:32.393Z,7.3
2022-09-21T00:33:48.644Z,7.3
2022-09-21T00:35:04.864Z,7.3
2022-09-21T00:36:21.117Z,7.3
2022-09-21T00:37:37.349Z,7.3
2022-09-21T00:38:53.587Z,7.3
2022-09-21T00:40:09.825Z,7.3
2022-09-21T00:41:26.076Z,7.3
2022-09-21T00:42:41.326Z,7.3
2022-09-21T00:43:57.563Z,7.3
2022-09-21T00:45:13.804Z,7.3
2022-09-21T00:46:30.044Z,7.2
2022-09-21T00:47:46.283Z,7.2
2022-09-21T00:49:02.519Z,7.2
2022-09-21T00:50:18.753Z,7.1
2022-09-21T00:51:35.008Z,7.1
2022-09-21T00:52:51.239Z,7.1
2022-09-21T00:54:07.481Z,7.1
2022-09-21T00:55:23.717Z,7
2022-09-21T00:56:39.957Z,7
2022-09-21T00:57:56.204Z,7
2022-09-21T00:59:11.459Z,7
2022-09-21T01:00:27.693Z,7
2022-09-21T01:01:43.931Z,7
2022-09-21T01:03:00.187Z,7
2022-09-21T01:04:16.429Z,7
2022-09-21T01:05:32.659Z,7
2022-09-21T01:06:48.909Z,6.9
2022-09-21T01:08:05.128Z,7
2022-09-21T01:09:21.365Z,7
2022-09-21T01:10:37.616Z,7
2022-09-21T01:11:53.858Z,6.9
2022-09-21T01:13:10.094Z,6.9
2022-09-21T01:14:26.346Z,6.9
2022-09-21T01:15:41.598Z,6.9
2022-09-21T01:16:57.817Z,6.9
2022-09-21T01:18:14.079Z,6.9
2022-09-21T01:19:30.307Z,6.8
2022-09-21T01:20:46.551Z,6.8
2022-09-21T01:22:02.789Z,6.8
2022-09-21T01:23:19.039Z,6.7
2022-09-21T01:24:35.263Z,6.7
2022-09-21T01:25:51.502Z,6.7
2022-09-21T01:27:07.756Z,6.7
2022-09-21T01:28:23.989Z,6.8
2022-09-21T01:29:40.231Z,6.8
2022-09-21T01:30:56.464Z,6.8
2022-09-21T01:32:11.734Z,6.8
2022-09-21T01:33:27.956Z,6.8
2022-09-21T01:34:44.209Z,6.8
2022-09-21T01:36:00.448Z,6.9
2022-09-21T01:37:16.684Z,6.8
2022-09-21T01:38:32.934Z,6.8
2022-09-21T01:39:49.155Z,6.8
2022-09-21T01:41:05.388Z,6.8
2022-09-21T01:42:21.654Z,6.8
2022-09-21T01:43:37.876Z,6.8
2022-09-21T01:44:54.133Z,6.8
2022-09-21T01:46:10.355Z,6.8
2022-09-21T01:47:26.604Z,6.8
2022-09-21T01:48:41.865Z,6.8
2022-09-21T01:49:58.109Z,6.8
2022-09-21T01:51:14.330Z,6.8
2022-09-21T01:52:30.589Z,6.7
2022-09-21T01:53:46.814Z,6.7
2022-09-21T01:55:03.055Z,6.7
2022-09-21T01:56:18.317Z,6.7
2022-09-21T01:57:34.554Z,6.7
2022-09-21T01:58:50.807Z,6.7
2022-09-21T02:00:07.028Z,6.6
2022-09-21T02:01:23.272Z,6.6
2022-09-21T02:02:39.527Z,6.6
2022-09-21T02:03:55.751Z,6.6
2022-09-21T02:05:12.005Z,6.6
2022-09-21T02:06:28.225Z,6.6
2022-09-21T02:07:44.461Z,6.5
2022-09-21T02:09:00.712Z,6.5
2022-09-21T02:10:16.951Z,6.5
2022-09-21T02:11:33.197Z,6.6
2022-09-21T02:12:48.458Z,6.6
2022-09-21T02:14:04.693Z,6.5
2022-09-21T02:15:20.936Z,6.5
2022-09-21T02:16:37.157Z,6.5
2022-09-21T02:17:53.409Z,6.5
2022-09-21T02:19:09.641Z,6.5
2022-09-21T02:21:42.129Z,6.4
2022-09-21T02:22:58.375Z,6.4
2022-09-21T02:24:14.604Z,6.4
2022-09-21T02:25:30.849Z,6.5
2022-09-21T02:26:47.086Z,6.4
2022-09-21T02:28:03.324Z,6.4
2022-09-21T02:29:18.573Z,6.4
2022-09-21T02:30:34.813Z,6.4
2022-09-21T02:31:51.050Z,6.4
2022-09-21T02:33:07.293Z,6.3
2022-09-21T02:34:23.551Z,6.3
2022-09-21T02:35:39.778Z,6.2
2022-09-21T02:36:56.019Z,6.2
2022-09-21T02:38:12.265Z,6.2
2022-09-21T02:39:28.498Z,6.2
2022-09-21T02:40:44.727Z,6.2
2022-09-21T02:42:00.983Z,6.2
2022-09-21T02:43:17.214Z,6.2
2022-09-21T02:44:33.461Z,6.1
2022-09-21T02:45:48.715Z,6.1
2022-09-21T02:47:04.964Z,6.1
2022-09-21T02:48:21.196Z,6.1
2022-09-21T02:49:37.427Z,6.1
2022-09-21T02:50:53.670Z,6.1
2022-09-21T02:52:09.908Z,6.1
2022-09-21T02:53:26.156Z,6.1
2022-09-21T02:54:42.381Z,6
2022-09-21T02:55:58.631Z,6
2022-09-21T02:57:14.862Z,6
2022-09-21T02:58:31.121Z,6
2022-09-21T02:59:47.340Z,6
2022-09-21T03:01:03.595Z,6
2022-09-21T03:02:18.842Z,6
2022-09-21T03:03:35.094Z,6
2022-09-21T03:04:51.325Z,6
2022-09-21T03:06:07.565Z,6
2022-09-21T03:07:23.824Z,6
2022-09-21T03:08:40.061Z,5.9
2022-09-21T03:09:56.287Z,6
2022-09-21T03:11:12.536Z,5.9
2022-09-21T03:12:28.755Z,5.9
2022-09-21T03:13:44.998Z,5.9
2022-09-21T03:15:01.247Z,5.9
2022-09-21T03:16:17.482Z,5.9
2022-09-21T03:17:33.722Z,5.8
2022-09-21T03:18:48.971Z,5.9
2022-09-21T03:20:05.211Z,5.9
2022-09-21T03:21:21.464Z,5.9
2022-09-21T03:22:37.706Z,5.9
2022-09-21T03:23:53.939Z,5.8
2022-09-21T03:25:10.181Z,5.9
2022-09-21T03:26:26.420Z,5.9
2022-09-21T03:27:42.663Z,5.8
2022-09-21T03:28:58.898Z,5.8
2022-09-21T03:30:15.138Z,5.8
2022-09-21T03:31:31.370Z,5.8
2022-09-21T03:32:47.615Z,5.8
2022-09-21T03:34:03.862Z,5.8
2022-09-21T03:35:19.116Z,5.7
2022-09-21T03:36:35.358Z,5.7
2022-09-21T03:37:51.595Z,5.7
2022-09-21T03:39:07.838Z,5.6
2022-09-21T03:40:24.076Z,5.6
2022-09-21T03:41:40.311Z,5.7
2022-09-21T03:42:56.568Z,5.7
2022-09-21T03:44:12.793Z,5.7
2022-09-21T03:45:29.021Z,5.7
2022-09-21T03:46:45.276Z,5.7
2022-09-21T03:48:01.500Z,5.7
2022-09-21T03:49:17.748Z,5.7
2022-09-21T03:50:33.992Z,5.6
2022-09-21T03:51:49.253Z,5.7
2022-09-21T03:53:05.486Z,5.6
2022-09-21T03:54:21.738Z,5.6
2022-09-21T03:55:37.971Z,5.6
2022-09-21T03:56:54.201Z,5.7
2022-09-21T03:58:10.456Z,5.7
2022-09-21T03:59:26.694Z,5.7
2022-09-21T04:00:42.913Z,5.6
2022-09-21T04:01:59.179Z,5.7
2022-09-21T04:03:15.400Z,5.7
2022-09-21T04:04:31.641Z,5.7
2022-09-21T04:05:47.876Z,5.7
2022-09-21T04:07:04.132Z,5.6
2022-09-21T04:08:19.371Z,5.6
2022-09-21T04:09:35.622Z,5.6
2022-09-21T04:10:51.854Z,5.6
2022-09-21T04:12:08.117Z,5.6
2022-09-21T04:13:24.331Z,5.6
2022-09-21T04:14:40.589Z,5.6
2022-09-21T04:15:56.823Z,5.6
2022-09-21T04:17:13.057Z,5.6
2022-09-21T04:18:29.291Z,5.6
2022-09-21T04:19:45.531Z,5.6
2022-09-21T04:21:01.796Z,5.6
2022-09-21T04:22:18.027Z,5.6
2022-09-21T04:23:34.274Z,5.6
2022-09-21T04:24:49.512Z,5.6
2022-09-21T04:26:05.759Z,5.6
2022-09-21T04:27:21.992Z,5.5
2022-09-21T04:28:38.245Z,5.5
2022-09-21T04:29:54.491Z,5.5
2022-09-21T04:31:10.712Z,5.5
2022-09-21T04:32:26.966Z,5.5
2022-09-21T04:33:43.200Z,5.5
2022-09-21T04:34:59.440Z,5.5
2022-09-21T04:36:15.672Z,5.5
2022-09-21T04:37:31.928Z,5.5
2022-09-21T04:38:48.139Z,5.5
2022-09-21T04:40:04.403Z,5.5
2022-09-21T04:41:19.641Z,5.5
2022-09-21T04:42:35.864Z,5.5
2022-09-21T04:43:52.146Z,5.4
2022-09-21T04:45:08.367Z,5.4
2022-09-21T04:46:24.621Z,5.4
2022-09-21T04:47:40.859Z,5.4
2022-09-21T04:48:57.102Z,5.4
2022-09-21T04:50:13.309Z,5.4
2022-09-21T04:51:29.551Z,5.4
2022-09-21T04:52:45.820Z,5.4
2022-09-21T04:54:02.024Z,5.5
2022-09-21T04:55:18.290Z,5.5
2022-09-21T04:56:34.536Z,5.4
2022-09-21T04:57:49.791Z,5.4
2022-09-21T04:59:05.999Z,5.4
2022-09-21T05:00:22.280Z,5.4
2022-09-21T05:01:38.486Z,5.4
2022-09-21T05:02:54.744Z,5.4
2022-09-21T05:04:10.987Z,5.4
2022-09-21T05:05:27.208Z,5.4
2022-09-21T05:06:43.465Z,5.4
2022-09-21T05:07:59.710Z,5.4
2022-09-21T05:09:15.946Z,5.4
2022-09-21T05:10:32.194Z,5.4
2022-09-21T05:11:48.438Z,5.4
2022-09-21T05:13:04.639Z,5.4
2022-09-21T05:14:19.908Z,5.4
2022-09-21T05:15:36.158Z,5.4
2022-09-21T05:16:52.372Z,5.4
2022-09-21T05:18:08.642Z,5.4
2022-09-21T05:19:24.861Z,5.4
2022-09-21T05:20:41.096Z,5.4
2022-09-21T05:21:57.363Z,5.4
2022-09-21T05:23:13.601Z,5.4
2022-09-21T05:24:29.851Z,5.3
2022-09-21T05:25:46.079Z,5.4
2022-09-21T05:27:02.315Z,5.4
2022-09-21T05:28:18.538Z,5.4
2022-09-21T05:29:34.808Z,5.4
2022-09-21T05:30:50.051Z,5.4
2022-09-21T05:32:06.279Z,5.4
2022-09-21T05:33:22.548Z,5.5
2022-09-21T05:34:38.789Z,5.4
2022-09-21T05:35:54.990Z,5.5
2022-09-21T05:37:11.227Z,5.5
2022-09-21T05:38:27.508Z,5.5
2022-09-21T05:39:43.705Z,5.5
2022-09-21T05:40:59.983Z,5.5
2022-09-21T05:42:16.220Z,5.5
2022-09-21T05:43:32.436Z,5.6
2022-09-21T05:44:48.695Z,5.6
2022-09-21T05:46:04.932Z,5.6
2022-09-21T05:47:20.163Z,5.6
2022-09-21T05:48:36.431Z,5.6
2022-09-21T05:49:52.675Z,5.7
2022-09-21T05:51:08.897Z,5.7
2022-09-21T05:52:25.162Z,5.7
2022-09-21T05:53:41.401Z,5.8
2022-09-21T05:54:57.633Z,5.8
2022-09-21T05:56:13.865Z,5.8
2022-09-21T05:57:30.109Z,5.9
2022-09-21T05:58:46.328Z,5.9
2022-09-21T06:00:02.600Z,5.9
2022-09-21T06:01:18.825Z,5.9
2022-09-21T06:02:35.045Z,6
2022-09-21T06:03:50.336Z,6
2022-09-21T06:05:06.560Z,6
2022-09-21T06:06:22.784Z,6
2022-09-21T06:07:39.013Z,6
2022-09-21T06:08:55.277Z,6
2022-09-21T06:10:11.521Z,6
2022-09-21T06:11:26.778Z,6
2022-09-21T06:12:43.024Z,6
2022-09-21T06:13:59.237Z,6.1
2022-09-21T06:15:15.479Z,6
2022-09-21T06:16:31.740Z,6.1
2022-09-21T06:17:47.978Z,6.1
2022-09-21T06:19:04.229Z,6.1
2022-09-21T06:20:20.432Z,6.2
2022-09-21T06:21:36.706Z,6.2
2022-09-21T06:22:52.951Z,6.2
2022-09-21T06:24:09.177Z,6.2
2022-09-21T06:25:25.419Z,6.2
2022-09-21T06:26:41.666Z,6.2
2022-09-21T06:27:56.928Z,6.2
2022-09-21T06:29:13.134Z,6.3
2022-09-21T06:30:29.374Z,6.3
2022-09-21T06:31:45.639Z,6.4
2022-09-21T06:33:01.847Z,6.4
2022-09-21T06:34:18.117Z,6.5
2022-09-21T06:35:34.370Z,6.5
2022-09-21T06:36:50.602Z,6.6
2022-09-21T06:38:06.812Z,6.6
2022-09-21T06:39:23.081Z,6.7
2022-09-21T06:40:39.298Z,6.7
2022-09-21T06:41:55.559Z,6.8
2022-09-21T06:43:11.791Z,6.9
2022-09-21T06:44:27.049Z,6.9
2022-09-21T06:45:43.279Z,7
2022-09-21T06:46:59.541Z,7.1
2022-09-21T06:48:15.780Z,7.2
2022-09-21T06:49:32.022Z,7.2
2022-09-21T06:50:48.255Z,7.3
2022-09-21T06:52:04.490Z,7.3
2022-09-21T06:53:20.702Z,7.4
2022-09-21T06:54:36.978Z,7.5
2022-09-21T06:55:53.179Z,7.5
2022-09-21T06:57:09.444Z,7.6
2022-09-21T06:58:25.673Z,7.7
2022-09-21T06:59:41.902Z,7.7
2022-09-21T07:00:57.161Z,7.8
2022-09-21T07:02:13.429Z,7.9
2022-09-21T07:03:29.663Z,8
2022-09-21T07:04:45.911Z,8.1
2022-09-21T07:06:02.153Z,8.1
2022-09-21T07:07:18.393Z,8.2
2022-09-21T07:08:34.599Z,8.2
2022-09-21T07:09:50.870Z,8.3
2022-09-21T07:11:07.077Z,8.3
2022-09-21T07:12:23.310Z,8.3
2022-09-21T07:13:39.577Z,8.4
2022-09-21T07:14:55.791Z,8.4
2022-09-21T07:16:12.069Z,8.5
2022-09-21T07:17:27.312Z,8.5
2022-09-21T07:19:59.809Z,8.6
2022-09-21T07:21:16.031Z,8.6
2022-09-21T07:22:32.271Z,8.7
2022-09-21T07:23:48.488Z,8.7
2022-09-21T07:25:04.757Z,8.7
2022-09-21T07:26:20.991Z,8.8
2022-09-21T07:27:37.228Z,8.9
2022-09-21T07:28:53.467Z,8.8
2022-09-21T07:30:09.698Z,8.9
2022-09-21T07:31:25.921Z,8.9
2022-09-21T07:32:42.200Z,9
2022-09-21T07:33:57.443Z,9.3
2022-09-21T07:36:29.896Z,9.9
2022-09-21T07:37:46.147Z,10.2
2022-09-21T07:39:02.389Z,10.2
2022-09-21T07:40:18.652Z,10.2
2022-09-21T07:41:34.852Z,10.3
2022-09-21T07:42:51.134Z,10.2
2022-09-21T07:44:07.370Z,10.1
2022-09-21T07:45:23.571Z,10.2
2022-09-21T07:46:39.815Z,10.2
2022-09-21T07:47:56.090Z,10.1
2022-09-21T07:49:12.296Z,10.1
2022-09-21T07:50:27.590Z,10.1
2022-09-21T07:51:43.784Z,10.2
2022-09-21T07:53:00.025Z,10.3
2022-09-21T07:54:16.311Z,10.4
2022-09-21T07:55:32.538Z,10.4
2022-09-21T07:56:48.742Z,10.6
2022-09-21T07:58:05.015Z,10.6
2022-09-21T07:59:21.260Z,10.6
2022-09-21T08:00:37.463Z,10.7
2022-09-21T08:01:53.743Z,10.8
2022-09-21T08:03:09.951Z,10.8
2022-09-21T08:04:26.212Z,10.9
2022-09-21T08:05:42.428Z,10.9
2022-09-21T08:06:57.717Z,11
2022-09-21T08:08:13.945Z,11.1
2022-09-21T08:09:30.188Z,11.2
2022-09-21T08:10:46.437Z,11.3
2022-09-21T08:12:02.634Z,11.4
2022-09-21T08:13:18.912Z,11.5
2022-09-21T08:14:35.141Z,11.6
2022-09-21T08:15:51.348Z,11.7
2022-09-21T08:17:07.595Z,11.8
2022-09-21T08:18:23.876Z,12
2022-09-21T08:19:40.111Z,12.2
2022-09-21T08:20:56.351Z,12.3
2022-09-21T08:22:12.552Z,12.4
2022-09-21T08:23:27.829Z,12.4
2022-09-21T08:24:44.044Z,12.4
2022-09-21T08:26:00.325Z,12.4
2022-09-21T08:27:16.550Z,12.2
2022-09-21T08:28:32.804Z,12.2
2022-09-21T08:29:49.032Z,12.3
2022-09-21T08:31:05.248Z,12.4
2022-09-21T08:32:21.486Z,12.5
2022-09-21T08:33:37.745Z,12.6
2022-09-21T08:34:54.000Z,12.7
2022-09-21T08:36:10.227Z,12.7
2022-09-21T08:37:26.467Z,12.8
2022-09-21T08:38:42.705Z,12.9
2022-09-21T08:39:57.963Z,12.9
2022-09-21T08:41:14.217Z,12.9
2022-09-21T08:42:30.444Z,12.8
2022-09-21T08:43:46.658Z,12.9
2022-09-21T08:45:02.916Z,12.9
2022-09-21T08:46:19.139Z,13
2022-09-21T08:47:35.411Z,12.9
2022-09-21T08:48:51.648Z,12.9
2022-09-21T08:50:07.876Z,12.9
2022-09-21T08:52:40.336Z,12.9
2022-09-21T08:53:56.569Z,13
2022-09-21T08:55:12.817Z,13.1
2022-09-21T08:56:28.075Z,13.2
2022-09-21T08:57:44.312Z,13.1
2022-09-21T08:59:00.553Z,13.1
2022-09-21T09:00:16.796Z,13.1
2022-09-21T09:01:33.028Z,13.2
2022-09-21T09:02:49.253Z,13.1
2022-09-21T09:04:05.502Z,13
2022-09-21T09:05:21.749Z,13
2022-09-21T09:06:37.995Z,13
2022-09-21T09:07:54.223Z,13
2022-09-21T09:09:10.451Z,13
2022-09-21T09:10:26.687Z,13
2022-09-21T09:11:42.947Z,13.1
2022-09-21T09:12:58.212Z,13
2022-09-21T09:14:14.448Z,13
2022-09-21T09:15:30.671Z,13
2022-09-21T09:16:46.907Z,13
2022-09-21T09:18:03.148Z,13.1
2022-09-21T09:19:19.404Z,13.1
2022-09-21T09:20:35.619Z,13.1
2022-09-21T09:21:51.879Z,13.1
2022-09-21T09:23:08.111Z,13.2
2022-09-21T09:24:24.338Z,13.3
2022-09-21T09:25:40.574Z,13.4
2022-09-21T09:26:56.832Z,13.3
2022-09-21T09:28:13.067Z,13.3
2022-09-21T09:29:28.321Z,13.4
2022-09-21T09:30:44.560Z,13.5
2022-09-21T09:32:00.810Z,13.5
2022-09-21T09:33:17.042Z,13.5
2022-09-21T09:34:33.285Z,13.6
2022-09-21T09:35:49.526Z,13.7
2022-09-21T09:37:05.764Z,13.7
2022-09-21T09:38:22.010Z,13.8
2022-09-21T09:39:38.222Z,14
2022-09-21T09:40:54.488Z,14.1
2022-09-21T09:42:10.730Z,14.2
2022-09-21T09:43:26.958Z,14.4
2022-09-21T09:44:43.202Z,14.6
2022-09-21T09:45:58.448Z,14.8
2022-09-21T09:47:14.686Z,15
2022-09-21T09:48:30.926Z,15.2
2022-09-21T09:49:47.179Z,15.5
2022-09-21T09:51:03.405Z,15.6
2022-09-21T09:52:19.658Z,15.8
2022-09-21T09:53:35.870Z,15.8
2022-09-21T09:54:52.139Z,15.8
2022-09-21T09:56:08.362Z,15.7
2022-09-21T09:57:24.600Z,15.6
2022-09-21T09:58:40.827Z,15.5
2022-09-21T09:59:57.089Z,15.4
2022-09-21T10:01:13.320Z,15.3
2022-09-21T10:02:28.588Z,15.3
2022-09-21T10:03:44.817Z,15.2
2022-09-21T10:05:01.060Z,15.2
2022-09-21T10:06:17.298Z,15.1
2022-09-21T10:07:33.549Z,15
2022-09-21T10:08:49.784Z,14.9
2022-09-21T10:10:06.019Z,14.8
2022-09-21T10:11:22.236Z,14.7
2022-09-21T10:12:38.494Z,14.7
2022-09-21T10:13:54.744Z,14.8
2022-09-21T10:15:10.965Z,15
2022-09-21T10:16:27.208Z,15.2
2022-09-21T10:17:43.454Z,15.3
2022-09-21T10:18:58.695Z,15.5
2022-09-21T10:20:14.944Z,15.8
2022-09-21T10:21:31.179Z,15.9
2022-09-21T10:22:47.436Z,16.1
2022-09-21T10:24:03.643Z,16
2022-09-21T10:25:19.900Z,16
2022-09-21T10:26:35.162Z,15.9
2022-09-21T10:27:51.400Z,15.8
2022-09-21T10:29:07.643Z,15.9
2022-09-21T10:30:23.892Z,15.7
2022-09-21T10:31:40.132Z,15.7
2022-09-21T10:32:56.350Z,15.8
2022-09-21T10:34:12.588Z,16
2022-09-21T10:35:28.828Z,16.1
2022-09-21T10:36:45.074Z,16.2
2022-09-21T10:38:01.309Z,16.3
2022-09-21T10:39:17.535Z,16.5
2022-09-21T10:40:33.802Z,16.3
2022-09-21T10:41:50.023Z,16.3
2022-09-21T10:43:05.284Z,16.2
2022-09-21T10:44:21.529Z,16.3
2022-09-21T10:45:37.770Z,16.3
2022-09-21T10:46:53.998Z,16.3
2022-09-21T10:48:10.223Z,16.4
2022-09-21T10:49:26.462Z,16.5
2022-09-21T10:50:42.724Z,16.6
2022-09-21T10:51:58.953Z,16.7
2022-09-21T10:53:15.202Z,16.8
2022-09-21T10:54:31.443Z,16.8
2022-09-21T10:55:47.666Z,16.8
2022-09-21T10:57:03.914Z,16.8
2022-09-21T10:58:20.167Z,16.8
2022-09-21T10:59:35.410Z,16.7
2022-09-21T11:00:51.661Z,16.8
2022-09-21T11:02:07.894Z,16.8
2022-09-21T11:03:24.131Z,16.8
2022-09-21T11:04:40.368Z,16.9
2022-09-21T11:05:56.609Z,16.9
2022-09-21T11:07:12.842Z,17
2022-09-21T11:08:29.077Z,17
2022-09-21T11:09:45.320Z,17
2022-09-21T11:11:01.558Z,16.8
2022-09-21T11:12:17.795Z,16.8
2022-09-21T11:13:34.048Z,16.8
2022-09-21T11:14:50.287Z,16.8
2022-09-21T11:16:05.534Z,16.9
2022-09-21T11:17:21.766Z,16.9
2022-09-21T11:18:38.019Z,16.8
2022-09-21T11:19:54.255Z,16.7
2022-09-21T11:21:10.487Z,16.6
2022-09-21T11:22:26.737Z,16.5
2022-09-21T11:23:42.976Z,16.5
2022-09-21T11:24:59.204Z,16.4
2022-09-21T11:26:15.435Z,16.4
2022-09-21T11:27:31.689Z,16.3
2022-09-21T11:28:47.938Z,16.3
2022-09-21T11:30:04.149Z,16.2
2022-09-21T11:31:20.400Z,16.2
2022-09-21T11:32:35.649Z,16.3
2022-09-21T11:33:51.914Z,16.3
2022-09-21T11:35:08.129Z,16.4
2022-09-21T11:36:24.373Z,16.4
2022-09-21T11:37:40.606Z,16.6
2022-09-21T11:38:56.855Z,16.8
2022-09-21T11:40:13.085Z,16.9
2022-09-21T11:41:29.333Z,16.9
2022-09-21T11:42:45.573Z,16.9
2022-09-21T11:44:01.801Z,16.8
2022-09-21T11:45:18.051Z,16.8
2022-09-21T11:46:34.306Z,16.8
2022-09-21T11:47:50.540Z,16.8
2022-09-21T11:49:05.794Z,16.9
2022-09-21T11:50:22.016Z,16.9
2022-09-21T11:51:38.265Z,16.7
2022-09-21T11:52:54.000Z,16.6
2022-09-21T11:54:10.754Z,16.4
2022-09-21T11:55:26.964Z,16.3
2022-09-21T11:56:43.217Z,16.3
2022-09-21T11:57:59.475Z,16.1
2022-09-21T11:59:15.700Z,16
2022-09-21T12:00:31.947Z,16.1
2022-09-21T12:01:48.175Z,16.1
2022-09-21T12:03:04.416Z,16.2
2022-09-21T12:04:20.653Z,16.3
2022-09-21T12:05:35.904Z,16.3
2022-09-21T12:06:52.151Z,16.3
2022-09-21T12:08:08.398Z,16.5
2022-09-21T12:09:24.641Z,16.5
2022-09-21T12:10:40.876Z,16.4
2022-09-21T12:11:57.110Z,16.3
2022-09-21T12:13:13.347Z,16.2
2022-09-21T12:14:29.587Z,16.3
2022-09-21T12:15:45.830Z,16.3
2022-09-21T12:17:02.076Z,16.3
2022-09-21T12:18:18.305Z,16.3
2022-09-21T12:19:34.547Z,16.3
2022-09-21T12:20:50.789Z,16.2
2022-09-21T12:22:06.029Z,16.2
2022-09-21T12:23:22.275Z,16.2
2022-09-21T12:24:38.522Z,16.2
2022-09-21T12:25:54.747Z,16.2
2022-09-21T12:27:10.991Z,16.1
2022-09-21T12:28:27.235Z,16.3
2022-09-21T12:29:43.484Z,16.3
2022-09-21T12:30:59.000Z,16.3
2022-09-21T12:32:15.959Z,16.3
2022-09-21T12:33:32.178Z,16.3
2022-09-21T12:34:48.425Z,16.3
2022-09-21T12:36:04.673Z,16.4
2022-09-21T12:37:20.897Z,16.3
2022-09-21T12:38:36.155Z,16.3
2022-09-21T12:39:52.403Z,16.3
2022-09-21T12:41:08.623Z,16.3
2022-09-21T12:42:24.000Z,16.3
2022-09-21T12:43:41.120Z,16.4
2022-09-21T12:44:57.362Z,16.4
2022-09-21T12:46:13.589Z,16.5
2022-09-21T12:47:29.838Z,16.5
2022-09-21T12:48:46.063Z,16.4
2022-09-21T12:50:02.304Z,16.4
2022-09-21T12:51:18.543Z,16.4
2022-09-21T12:52:34.801Z,16.4
2022-09-21T12:53:51.032Z,16.5
2022-09-21T12:55:06.306Z,16.5
2022-09-21T12:56:22.529Z,16.6
2022-09-21T12:57:38.765Z,16.8
2022-09-21T12:58:55.014Z,16.9
2022-09-21T13:00:11.247Z,16.8
2022-09-21T13:01:27.499Z,16.7
2022-09-21T13:02:43.732Z,16.7
2022-09-21T13:03:59.967Z,16.7
2022-09-21T13:05:16.202Z,16.6
2022-09-21T13:06:32.442Z,16.6
2022-09-21T13:07:48.688Z,16.6
2022-09-21T13:09:04.916Z,16.6
2022-09-21T13:10:21.173Z,16.7
2022-09-21T13:11:36.421Z,16.8
2022-09-21T13:12:52.651Z,16.8
2022-09-21T13:14:08.899Z,16.9
2022-09-21T13:15:25.133Z,16.9
2022-09-21T13:16:41.373Z,17
2022-09-21T13:17:57.606Z,17
2022-09-21T13:19:13.833Z,17.1
2022-09-21T13:20:30.088Z,17.1
2022-09-21T13:21:46.340Z,17.1
2022-09-21T13:23:02.560Z,16.9
2022-09-21T13:24:18.805Z,16.8
2022-09-21T13:25:35.045Z,16.8
2022-09-21T13:26:51.271Z,16.9
2022-09-21T13:28:06.540Z,17
2022-09-21T13:29:22.793Z,17.1
2022-09-21T13:30:39.029Z,17.1
2022-09-21T13:31:55.271Z,17.2
2022-09-21T13:33:11.497Z,17.3
2022-09-21T13:34:27.731Z,17.4
2022-09-21T13:35:43.958Z,17.4
2022-09-21T13:37:00.219Z,17.5
2022-09-21T13:38:16.456Z,17.5
2022-09-21T13:39:32.710Z,17.5
2022-09-21T13:40:48.939Z,17.6
2022-09-21T13:42:05.170Z,17.7
2022-09-21T13:43:21.399Z,17.8
2022-09-21T13:44:36.663Z,17.9
2022-09-21T13:45:52.894Z,18
2022-09-21T13:47:09.141Z,18
2022-09-21T13:48:25.386Z,18.1
2022-09-21T13:49:41.607Z,18
2022-09-21T13:50:57.862Z,17.9
2022-09-21T13:52:14.112Z,17.9
2022-09-21T13:53:30.340Z,18
2022-09-21T13:54:46.593Z,18
2022-09-21T13:56:02.831Z,18.1
2022-09-21T13:57:19.057Z,18.1
2022-09-21T13:58:35.285Z,18.2
2022-09-21T13:59:51.539Z,18.1
2022-09-21T14:01:06.810Z,18.1
2022-09-21T14:02:23.033Z,18.1
2022-09-21T14:03:39.285Z,18.2
2022-09-21T14:04:55.500Z,18.2
2022-09-21T14:06:11.753Z,18.2
2022-09-21T14:07:27.973Z,18.2
2022-09-21T14:08:44.238Z,18.2
2022-09-21T14:10:00.451Z,18.1
2022-09-21T14:11:16.723Z,18
2022-09-21T14:12:32.928Z,17.9
2022-09-21T14:13:49.184Z,17.9
2022-09-21T14:15:05.433Z,17.8
2022-09-21T14:16:21.665Z,17.8
2022-09-21T14:17:36.916Z,17.7
2022-09-21T14:18:53.160Z,17.6
2022-09-21T14:20:09.394Z,17.6
2022-09-21T14:21:25.622Z,17.5
2022-09-21T14:22:41.873Z,17.4
2022-09-21T14:23:58.112Z,17.4
2022-09-21T14:25:14.353Z,17.4
2022-09-21T14:26:30.581Z,17.3
2022-09-21T14:27:46.839Z,17.3
2022-09-21T14:29:03.071Z,17.3
2022-09-21T14:30:19.322Z,17.3
2022-09-21T14:31:35.532Z,17.2
2022-09-21T14:32:51.789Z,17.1
2022-09-21T14:34:07.053Z,17.1
2022-09-21T14:35:23.274Z,17.1
2022-09-21T14:36:39.000Z,17.1
2022-09-21T14:37:55.744Z,17.1
2022-09-21T14:39:12.009Z,17.2
2022-09-21T14:40:28.226Z,17.1
2022-09-21T14:41:43.507Z,17.1
2022-09-21T14:42:59.737Z,17
2022-09-21T14:44:15.988Z,17
2022-09-21T14:45:32.223Z,17
2022-09-21T14:46:48.463Z,17
2022-09-21T14:48:04.694Z,17
2022-09-21T14:49:20.934Z,17
2022-09-21T14:50:37.192Z,16.9
2022-09-21T14:51:53.408Z,16.9
2022-09-21T14:53:09.644Z,16.8
2022-09-21T14:54:25.900Z,16.8
2022-09-21T14:55:42.137Z,16.7
2022-09-21T14:56:58.378Z,16.7
2022-09-21T14:58:13.621Z,16.7
2022-09-21T14:59:29.853Z,16.7
2022-09-21T15:00:46.096Z,16.7
2022-09-21T15:02:02.333Z,16.7
2022-09-21T15:03:18.571Z,16.6
2022-09-21T15:04:34.828Z,16.6
2022-09-21T15:05:51.067Z,16.6
2022-09-21T15:07:07.288Z,16.5
2022-09-21T15:08:23.538Z,16.5
2022-09-21T15:09:39.769Z,16.4
2022-09-21T15:10:56.016Z,16.4
2022-09-21T15:12:12.256Z,16.3
2022-09-21T15:13:28.484Z,16.3
2022-09-21T15:14:43.742Z,16.3
2022-09-21T15:15:59.975Z,16.3
2022-09-21T15:17:16.227Z,16.3
2022-09-21T15:18:32.473Z,16.3
2022-09-21T15:19:48.701Z,16.2
2022-09-21T15:21:04.941Z,16.2
2022-09-21T15:22:21.000Z,16.1
2022-09-21T15:23:37.425Z,16
2022-09-21T15:24:53.665Z,16
2022-09-21T15:26:09.895Z,16
2022-09-21T15:27:26.143Z,16
2022-09-21T15:28:42.375Z,15.9
2022-09-21T15:29:58.608Z,15.8
2022-09-21T15:31:13.885Z,15.8
2022-09-21T15:32:30.112Z,15.7
2022-09-21T15:33:46.349Z,15.7
2022-09-21T15:35:02.593Z,15.7
2022-09-21T15:36:18.828Z,15.6
2022-09-21T15:37:35.062Z,15.6
2022-09-21T15:38:51.315Z,15.5
2022-09-21T15:40:07.559Z,15.4
2022-09-21T15:41:23.795Z,15.3
2022-09-21T15:42:40.020Z,15.3
2022-09-21T15:43:56.262Z,15.2
2022-09-21T15:45:12.497Z,15.1
2022-09-21T15:46:28.739Z,15.1
2022-09-21T15:47:44.009Z,15.1
2022-09-21T15:49:00.244Z,15
2022-09-21T15:50:16.484Z,15
2022-09-21T15:51:32.715Z,15
2022-09-21T15:52:48.954Z,15
2022-09-21T15:54:05.198Z,15
2022-09-21T15:55:21.437Z,14.9
2022-09-21T15:56:37.683Z,14.9
2022-09-21T15:57:53.915Z,14.8
2022-09-21T15:59:10.154Z,14.7
2022-09-21T16:00:26.382Z,14.7
2022-09-21T16:01:42.629Z,14.6
2022-09-21T16:02:58.878Z,14.6
2022-09-21T16:04:14.121Z,14.5
2022-09-21T16:05:30.360Z,14.5
2022-09-21T16:06:46.597Z,14.5
2022-09-21T16:08:02.848Z,14.5
2022-09-21T16:09:19.078Z,14.4
2022-09-21T16:10:35.320Z,14.4
2022-09-21T16:11:51.573Z,14.4
2022-09-21T16:13:07.804Z,14.3
2022-09-21T16:14:24.041Z,14.2
2022-09-21T16:15:40.273Z,14.2
2022-09-21T16:16:56.526Z,14.2
2022-09-21T16:18:12.769Z,14.1
2022-09-21T16:19:29.001Z,14
2022-09-21T16:20:44.262Z,13.9
2022-09-21T16:22:00.504Z,13.8
2022-09-21T16:23:16.732Z,13.7
2022-09-21T16:24:32.986Z,13.7
2022-09-21T16:25:49.222Z,13.6
2022-09-21T16:27:05.457Z,13.5
2022-09-21T16:28:21.703Z,13.5
2022-09-21T16:29:37.925Z,13.4
2022-09-21T16:30:54.159Z,13.4
2022-09-21T16:32:10.406Z,13.3
2022-09-21T16:33:26.656Z,13.3
2022-09-21T16:34:42.900Z,13.2
2022-09-21T16:35:59.137Z,13.2
2022-09-21T16:37:14.395Z,13.1
2022-09-21T16:38:30.630Z,13.1
2022-09-21T16:39:46.873Z,13
2022-09-21T16:41:03.098Z,12.9
2022-09-21T16:42:19.334Z,12.9
2022-09-21T16:43:35.592Z,12.8
2022-09-21T16:44:51.826Z,12.8
2022-09-21T16:46:08.063Z,12.7
2022-09-21T16:47:24.290Z,12.7
2022-09-21T16:48:40.533Z,12.6
2022-09-21T16:49:56.780Z,12.6
2022-09-21T16:51:13.019Z,12.6
2022-09-21T16:52:29.258Z,12.6
2022-09-21T16:53:44.503Z,12.5
2022-09-21T16:55:00.755Z,12.4
2022-09-21T16:56:16.988Z,12.4
2022-09-21T16:57:33.229Z,12.3
2022-09-21T16:58:49.464Z,12.2
2022-09-21T17:00:05.700Z,12.2
2022-09-21T17:01:21.946Z,12.1
2022-09-21T17:02:38.183Z,12.1
2022-09-21T17:03:54.430Z,12.1
2022-09-21T17:05:10.664Z,12.1
2022-09-21T17:06:26.913Z,12
2022-09-21T17:07:43.142Z,11.9
2022-09-21T17:08:59.381Z,11.9
2022-09-21T17:10:14.628Z,11.8
2022-09-21T17:11:30.881Z,11.8
2022-09-21T17:12:47.122Z,11.7
2022-09-21T17:14:03.361Z,11.7
2022-09-21T17:15:19.590Z,11.7
2022-09-21T17:16:35.824Z,11.6
2022-09-21T17:19:08.319Z,11.5
2022-09-21T17:20:24.561Z,11.4
2022-09-21T17:21:40.790Z,11.4
2022-09-21T17:22:57.032Z,11.4